Nijar, Spain
Current Conditions -  °F | °C
As of 5:30 AM on Sunday 21 Dec 2014 (Local Time) from LEAM Reporting Station
Broken Clouds Broken Clouds  
Wind Chill: 55°   Ceiling: 2500
Heat Index: 55°   Visibility: 6mi
Dew Point: 50°   Wind: 8mph
Humidity: 82%   Direction: 320°NW
Pressure: 30.45"   Gusts: NA
Location:  36.97°N, 2.21°W
Report Text: LEAM 210430Z 32007KT 9999 FEW010 BKN025 13/10 Q1031
Loading
Personal Weather Stations






























Interactive Weather Map New forecast layout! Learn more

10-Day Weather Forecast

Advertisements
Track Severe Weather on mobile